Time;durP1;ratioP1;P1;durP2;ratioP2;P2;SDS_P1;SDS_P2;PMS_P1;PMS_P2;Temp;Humidity;BMP_temperature;BMP_pressure;BME280_temperature;BME280_humidity;BME280_pressure;Samples;Min_cycle;Max_cycle;Signal;HPM_P1;HPM_P2
2022/07/23 00:01:31;;;;;;;9.00;8.30;;;24.90;99.90;;;;;;5017311;28;20199;-86
2022/07/23 00:03:57;;;;;;;14.77;13.85;;;24.90;99.90;;;;;;5017365;28;20262;-85
2022/07/23 00:06:24;;;;;;;32.65;30.65;;;25.00;99.90;;;;;;5018814;28;20202;-83
2022/07/23 00:08:50;;;;;;;37.25;35.15;;;25.10;99.90;;;;;;5016201;28;20647;-85
2022/07/23 00:11:16;;;;;;;50.05;47.03;;;25.10;99.90;;;;;;5018653;28;20203;-84
2022/07/23 00:13:42;;;;;;;52.20;49.45;;;25.10;99.90;;;;;;5013966;28;20184;-84
2022/07/23 00:16:08;;;;;;;53.05;50.13;;;25.10;99.90;;;;;;4997671;28;20732;-84
2022/07/23 00:18:34;;;;;;;58.70;55.72;;;25.10;99.90;;;;;;4997393;28;20181;-84
2022/07/23 00:21:00;;;;;;;32.47;30.73;;;25.00;99.90;;;;;;4997537;28;20180;-84
2022/07/23 00:23:28;;;;;;;17.52;16.50;;;25.00;99.90;;;;;;4997570;28;20188;-85
2022/07/23 00:25:54;;;;;;;25.75;24.13;;;25.10;99.90;;;;;;4997930;28;20204;-86
2022/07/23 00:28:20;;;;;;;18.52;17.42;;;25.10;99.90;;;;;;5005128;28;20174;-86
2022/07/23 00:30:46;;;;;;;15.63;14.60;;;25.00;99.90;;;;;;5018751;28;20249;-85
2022/07/23 00:33:13;;;;;;;19.90;18.88;;;25.10;99.90;;;;;;5017894;28;20553;-86
2022/07/23 00:35:41;;;;;;;20.33;19.08;;;25.10;99.90;;;;;;5018608;28;20230;-86
2022/07/23 00:38:09;;;;;;;20.60;19.30;;;25.00;99.90;;;;;;5020010;28;20188;-87
2022/07/23 00:40:35;;;;;;;16.27;15.23;;;24.90;99.90;;;;;;5019298;28;20226;-87
2022/07/23 00:43:01;;;;;;;12.35;11.50;;;24.90;99.90;;;;;;5029147;28;20180;-85
2022/07/23 00:45:28;;;;;;;10.32;9.63;;;24.90;99.90;;;;;;5022484;28;20334;-84
2022/07/23 00:47:54;;;;;;;8.23;7.63;;;24.90;99.90;;;;;;5016984;28;20187;-84
2022/07/23 00:50:20;;;;;;;8.25;7.53;;;24.90;99.90;;;;;;5015426;28;20172;-84
2022/07/23 00:52:46;;;;;;;10.05;9.45;;;24.90;99.90;;;;;;5015485;28;20218;-86
2022/07/23 00:55:12;;;;;;;7.20;6.57;;;24.90;99.90;;;;;;5031113;28;20210;-85
2022/07/23 00:57:40;;;;;;;7.32;6.93;;;24.90;99.90;;;;;;5000607;28;20190;-84
2022/07/23 01:00:08;;;;;;;10.75;9.75;;;24.90;99.90;;;;;;4997371;28;20242;-86
2022/07/23 01:02:35;;;;;;;12.68;11.88;;;24.90;99.90;;;;;;5000819;28;20208;-84
2022/07/23 01:05:01;;;;;;;34.30;32.38;;;24.90;99.90;;;;;;5009141;28;20204;-88
2022/07/23 01:07:27;;;;;;;44.97;42.40;;;24.90;99.90;;;;;;5010495;28;20182;-87
2022/07/23 01:09:54;;;;;;;35.20;33.35;;;24.70;99.90;;;;;;5001885;28;20661;-85
2022/07/23 01:12:20;;;;;;;41.08;38.97;;;24.60;99.90;;;;;;5016203;28;20223;-89
2022/07/23 01:14:57;;;;;;;25.65;24.17;;;24.60;99.90;;;;;;5019502;28;20169;-89
2022/07/23 01:17:23;;;;;;;28.20;26.67;;;24.50;99.90;;;;;;5003679;28;20534;-87
2022/07/23 01:19:49;;;;;;;25.27;23.60;;;24.50;99.90;;;;;;4997149;28;20194;-86
2022/07/23 01:22:17;;;;;;;36.10;33.90;;;24.50;99.90;;;;;;4997632;28;20204;-88
2022/07/23 01:24:43;;;;;;;37.30;35.35;;;24.50;99.90;;;;;;4998657;28;20227;-87
2022/07/23 01:27:09;;;;;;;30.73;28.83;;;24.50;99.90;;;;;;4996512;28;20188;-86
2022/07/23 01:29:35;;;;;;;24.42;22.98;;;24.50;99.90;;;;;;4997956;28;20180;-87
2022/07/23 01:32:01;;;;;;;14.48;13.68;;;24.50;99.90;;;;;;4996840;28;20200;-86
2022/07/23 01:34:26;;;;;;;11.75;11.05;;;24.50;99.90;;;;;;4997345;28;20800;-84
2022/07/23 01:36:52;;;;;;;7.40;6.80;;;24.50;99.90;;;;;;5011714;28;20192;-89
2022/07/23 01:39:18;;;;;;;6.55;6.15;;;24.50;99.90;;;;;;5019432;28;20197;-89
2022/07/23 01:41:44;;;;;;;5.93;5.53;;;24.50;99.90;;;;;;5019372;28;20196;-89
2022/07/23 01:44:09;;;;;;;6.93;6.43;;;24.50;99.90;;;;;;5025994;28;20218;-87
2022/07/23 01:46:35;;;;;;;5.95;5.60;;;24.50;99.90;;;;;;5019826;28;20597;-87
2022/07/23 01:49:01;;;;;;;6.47;6.10;;;24.50;99.90;;;;;;5018565;28;20180;-86
2022/07/23 01:51:27;;;;;;;6.10;5.80;;;24.50;99.90;;;;;;5015325;28;20238;-87
2022/07/23 01:53:52;;;;;;;6.00;5.50;;;24.50;99.90;;;;;;5016691;28;20624;-86
2022/07/23 01:56:20;;;;;;;6.18;5.88;;;24.50;99.90;;;;;;5017373;28;20176;-86
2022/07/23 01:58:47;;;;;;;7.93;7.32;;;24.50;99.90;;;;;;5015412;28;20561;-85
2022/07/23 02:01:13;;;;;;;7.22;6.72;;;24.40;99.90;;;;;;5016202;28;20703;-86
2022/07/23 02:03:38;;;;;;;6.30;6.00;;;24.50;99.90;;;;;;5015424;28;20180;-86
2022/07/23 02:06:04;;;;;;;8.75;8.25;;;24.40;99.90;;;;;;5020545;28;20282;-89
2022/07/23 02:08:30;;;;;;;9.13;8.63;;;24.40;99.90;;;;;;5004954;28;20565;-85
2022/07/23 02:10:56;;;;;;;9.60;9.02;;;24.30;99.90;;;;;;5000789;28;20656;-85
2022/07/23 02:13:22;;;;;;;11.63;10.68;;;24.30;99.90;;;;;;4997307;28;20180;-84
2022/07/23 02:15:48;;;;;;;18.13;17.15;;;24.20;99.90;;;;;;4997129;28;20240;-84
2022/07/23 02:18:14;;;;;;;25.30;23.98;;;24.10;99.90;;;;;;4995883;28;20212;-84
2022/07/23 02:20:40;;;;;;;27.83;26.42;;;24.00;99.90;;;;;;4995486;28;20184;-85
2022/07/23 02:23:06;;;;;;;26.13;24.73;;;23.90;99.90;;;;;;4997159;28;20239;-85
2022/07/23 02:25:33;;;;;;;24.02;22.70;;;23.80;99.90;;;;;;4995344;28;20208;-83
2022/07/23 02:27:59;;;;;;;15.70;14.80;;;23.80;99.90;;;;;;4994073;28;20203;-84
2022/07/23 02:30:25;;;;;;;13.48;12.68;;;23.70;99.90;;;;;;4994709;28;20649;-84
2022/07/23 02:32:51;;;;;;;9.70;9.10;;;23.70;99.90;;;;;;4994825;28;20303;-84
2022/07/23 02:35:17;;;;;;;8.68;7.97;;;23.70;99.90;;;;;;5021287;28;20168;-87
2022/07/23 02:37:46;;;;;;;9.02;8.45;;;23.50;99.90;;;;;;5022101;28;20196;-85
2022/07/23 02:40:12;;;;;;;11.15;10.35;;;23.50;99.90;;;;;;5020641;28;20266;-83
2022/07/23 02:42:38;;;;;;;9.18;8.45;;;23.40;99.90;;;;;;5014574;28;20713;-83
2022/07/23 02:45:04;;;;;;;10.40;9.52;;;23.30;99.90;;;;;;5012317;28;20298;-83
2022/07/23 02:47:31;;;;;;;8.10;7.60;;;23.30;99.90;;;;;;5012729;28;20180;-84
2022/07/23 02:49:57;;;;;;;7.90;7.40;;;23.30;99.90;;;;;;5013653;28;20190;-85
2022/07/23 02:52:23;;;;;;;6.85;6.28;;;23.30;99.90;;;;;;5015150;28;20254;-85
2022/07/23 02:54:49;;;;;;;6.25;5.75;;;23.30;99.90;;;;;;5016777;28;20190;-86
2022/07/23 02:57:15;;;;;;;6.47;5.97;;;23.30;99.90;;;;;;5014355;28;20183;-85
2022/07/23 02:59:40;;;;;;;6.50;6.00;;;23.20;99.90;;;;;;5014808;28;20191;-85
2022/07/23 03:02:06;;;;;;;6.82;6.10;;;23.10;99.90;;;;;;5022656;28;20207;-86
2022/07/23 03:04:32;;;;;;;6.50;6.00;;;23.10;99.90;;;;;;5016782;28;20268;-85
2022/07/23 03:06:58;;;;;;;7.32;6.93;;;23.00;99.90;;;;;;4994047;28;20191;-85
2022/07/23 03:09:24;;;;;;;9.68;8.98;;;23.00;99.90;;;;;;4994746;28;20230;-84
2022/07/23 03:11:49;;;;;;;9.75;9.13;;;22.90;99.90;;;;;;4994644;28;20351;-83
2022/07/23 03:14:16;;;;;;;8.23;7.63;;;22.90;99.90;;;;;;5007295;28;20184;-85
2022/07/23 03:16:42;;;;;;;7.82;7.30;;;22.90;99.90;;;;;;5014236;28;20208;-86
2022/07/23 03:19:07;;;;;;;7.72;7.22;;;22.80;99.90;;;;;;5025260;28;20191;-84
2022/07/23 03:21:34;;;;;;;7.78;7.28;;;22.80;99.90;;;;;;5019310;28;20200;-85
2022/07/23 03:24:00;;;;;;;6.80;6.30;;;22.70;99.90;;;;;;5032908;28;20236;-85
2022/07/23 03:26:26;;;;;;;7.53;6.88;;;22.70;99.90;;;;;;5030538;28;20195;-84
2022/07/23 03:28:52;;;;;;;8.35;7.85;;;22.60;99.90;;;;;;5014575;28;20184;-84
2022/07/23 03:31:20;;;;;;;8.70;8.07;;;22.50;99.90;;;;;;5015302;28;20237;-84
2022/07/23 03:33:46;;;;;;;19.80;18.60;;;22.50;99.90;;;;;;5007649;28;20193;-85
2022/07/23 03:36:11;;;;;;;28.08;26.48;;;22.50;99.90;;;;;;4994275;28;20558;-83
2022/07/23 03:38:37;;;;;;;22.08;20.77;;;22.50;99.90;;;;;;4992540;28;20638;-85
2022/07/23 03:41:03;;;;;;;20.48;19.20;;;22.40;99.90;;;;;;4993120;28;20177;-85
2022/07/23 03:43:29;;;;;;;9.80;9.23;;;22.30;99.90;;;;;;4999772;28;20230;-84
2022/07/23 03:45:55;;;;;;;10.45;9.65;;;22.30;99.90;;;;;;5013331;28;20573;-84
2022/07/23 03:48:20;;;;;;;9.65;8.85;;;22.20;99.90;;;;;;5013195;28;20195;-84
2022/07/23 03:50:46;;;;;;;7.32;6.88;;;22.10;99.90;;;;;;5010220;28;20207;-84
2022/07/23 03:53:12;;;;;;;12.15;10.63;;;22.00;99.90;;;;;;5063622;23;20256;-77
2022/07/23 03:55:38;;;;;;;12.20;11.48;;;22.00;99.90;;;;;;5050563;28;20182;-76
2022/07/23 03:58:04;;;;;;;11.73;11.07;;;22.00;99.90;;;;;;5049771;28;20278;-76
2022/07/23 04:00:30;;;;;;;13.13;12.38;;;21.90;99.90;;;;;;5050897;28;20634;-77
2022/07/23 04:02:56;;;;;;;16.30;15.38;;;21.90;99.90;;;;;;5044032;28;20222;-76
2022/07/23 04:05:22;;;;;;;26.73;25.17;;;21.80;99.90;;;;;;5013659;28;20218;-77
2022/07/23 04:07:47;;;;;;;76.15;72.10;;;21.80;99.90;;;;;;5009656;28;20183;-76
2022/07/23 04:10:13;;;;;;;58.55;55.53;;;21.80;99.90;;;;;;5011362;28;20176;-77
2022/07/23 04:12:39;;;;;;;61.75;58.47;;;21.70;99.90;;;;;;5011586;28;20212;-77
2022/07/23 04:15:08;;;;;;;58.35;55.25;;;21.70;99.90;;;;;;5032934;28;20179;-77
2022/07/23 04:17:34;;;;;;;45.53;42.97;;;21.70;99.90;;;;;;5040781;28;20187;-77
2022/07/23 04:19:59;;;;;;;56.47;53.47;;;21.60;99.90;;;;;;5043391;28;20186;-77
2022/07/23 04:22:25;;;;;;;52.65;49.80;;;21.70;99.90;;;;;;5035969;28;20261;-77
2022/07/23 04:24:51;;;;;;;45.33;42.92;;;21.70;99.90;;;;;;5043361;28;20187;-76
2022/07/23 04:27:16;;;;;;;41.05;38.75;;;21.70;99.90;;;;;;5043268;28;20191;-77
2022/07/23 04:29:42;;;;;;;16.77;15.73;;;21.80;99.90;;;;;;5036922;28;20689;-77
2022/07/23 04:32:08;;;;;;;14.68;13.70;;;21.80;99.90;;;;;;5034909;28;20218;-76
2022/07/23 04:34:34;;;;;;;15.85;14.75;;;22.00;99.90;;;;;;5022222;28;20203;-77
2022/07/23 04:37:00;;;;;;;16.73;15.73;;;22.10;99.90;;;;;;5019642;28;20262;-77
2022/07/23 04:39:25;;;;;;;17.55;16.40;;;22.30;99.90;;;;;;5033795;28;20175;-76
2022/07/23 04:41:51;;;;;;;12.57;11.77;;;22.40;99.90;;;;;;5034116;28;20211;-76
2022/07/23 04:44:17;;;;;;;10.40;9.63;;;22.50;99.90;;;;;;5022634;28;20652;-77
2022/07/23 04:46:43;;;;;;;11.32;10.57;;;22.60;99.90;;;;;;5017919;28;20223;-75
2022/07/23 04:49:08;;;;;;;8.18;7.57;;;22.70;99.90;;;;;;5015870;28;20640;-76
2022/07/23 04:51:34;;;;;;;9.00;8.30;;;22.80;99.90;;;;;;5013455;28;20832;-75
2022/07/23 04:54:00;;;;;;;10.65;10.05;;;22.80;99.90;;;;;;5014717;28;20180;-75
2022/07/23 04:56:26;;;;;;;11.43;10.73;;;22.90;99.90;;;;;;5013536;28;20179;-77
2022/07/23 04:58:52;;;;;;;14.65;13.73;;;22.90;99.90;;;;;;5012785;28;20180;-77
2022/07/23 05:01:17;;;;;;;16.20;15.18;;;22.90;99.90;;;;;;5012207;28;20575;-75
2022/07/23 05:03:43;;;;;;;30.17;28.30;;;23.00;99.90;;;;;;5017346;28;20657;-75
2022/07/23 05:06:09;;;;;;;39.67;37.40;;;23.20;99.90;;;;;;5029823;28;20234;-75
2022/07/23 05:08:35;;;;;;;39.35;37.35;;;23.30;99.90;;;;;;5028208;28;20218;-76
2022/07/23 05:11:01;;;;;;;23.35;22.05;;;23.50;99.90;;;;;;5032960;28;20273;-76
2022/07/23 05:13:26;;;;;;;15.77;14.63;;;23.70;99.90;;;;;;5041612;28;20631;-76
2022/07/23 05:15:52;;;;;;;14.80;13.90;;;23.90;99.90;;;;;;5032908;28;20207;-76
2022/07/23 05:18:18;;;;;;;11.70;10.90;;;24.00;99.90;;;;;;5031636;28;20175;-76
2022/07/23 05:20:44;;;;;;;13.82;12.63;;;24.00;99.90;;;;;;5032120;28;20183;-76
2022/07/23 05:23:10;;;;;;;10.43;9.73;;;24.10;99.90;;;;;;5031982;28;20195;-74
2022/07/23 05:25:36;;;;;;;10.48;9.57;;;24.10;99.90;;;;;;5032051;28;20241;-75
2022/07/23 05:28:01;;;;;;;8.13;7.63;;;24.20;99.90;;;;;;5029887;28;20194;-75
2022/07/23 05:30:27;;;;;;;7.65;7.05;;;24.10;99.90;;;;;;5035669;28;20187;-75
2022/07/23 05:32:53;;;;;;;7.75;7.07;;;24.10;99.90;;;;;;5035794;28;20205;-77
2022/07/23 05:35:19;;;;;;;7.63;6.97;;;24.20;99.90;;;;;;5015532;28;20687;-76
2022/07/23 05:37:45;;;;;;;7.80;7.15;;;24.30;99.90;;;;;;5009058;28;20266;-75
2022/07/23 05:40:11;;;;;;;7.63;7.03;;;24.30;99.90;;;;;;5011370;28;20643;-76
2022/07/23 05:42:38;;;;;;;8.23;7.28;;;24.30;99.90;;;;;;5012210;28;20330;-76
2022/07/23 05:45:05;;;;;;;9.35;8.57;;;24.20;99.90;;;;;;5011699;28;20191;-75
2022/07/23 05:47:45;;;;;;;10.38;9.68;;;24.20;99.90;;;;;;5011354;28;20176;-76
2022/07/23 05:50:12;;;;;;;12.98;12.07;;;24.30;99.90;;;;;;5011440;28;20223;-77
2022/07/23 05:52:38;;;;;;;9.02;8.52;;;24.50;99.90;;;;;;5014319;28;20222;-77
2022/07/23 05:55:05;;;;;;;8.23;7.68;;;25.10;99.90;;;;;;5030350;28;20242;-77
2022/07/23 05:57:31;;;;;;;43.20;40.95;;;25.90;99.90;;;;;;5030654;28;20175;-76
2022/07/23 05:59:57;;;;;;;44.97;42.53;;;26.50;99.90;;;;;;5031653;28;20186;-75
2022/07/23 06:02:23;;;;;;;21.90;20.70;;;26.50;99.90;;;;;;5029980;28;20195;-76
2022/07/23 06:04:49;;;;;;;31.98;30.08;;;26.20;99.90;;;;;;5018533;28;20187;-75
2022/07/23 06:07:14;;;;;;;46.05;43.55;;;25.90;99.90;;;;;;5010398;28;20258;-76
2022/07/23 06:09:40;;;;;;;116.88;110.95;;;25.50;99.90;;;;;;5011142;28;20597;-76
2022/07/23 06:12:07;;;;;;;124.32;118.10;;;25.30;99.90;;;;;;5013314;28;20231;-78
2022/07/23 06:14:33;;;;;;;25.98;24.48;;;25.20;99.90;;;;;;5020626;28;20755;-77
2022/07/23 06:16:59;;;;;;;16.63;15.60;;;25.20;99.90;;;;;;5030810;28;20273;-77
2022/07/23 06:19:25;;;;;;;15.18;14.38;;;25.20;99.90;;;;;;5030720;28;20270;-76
2022/07/23 06:21:51;;;;;;;18.95;17.45;;;25.30;99.90;;;;;;5038777;28;20191;-76
2022/07/23 06:24:16;;;;;;;17.92;16.92;;;25.40;99.90;;;;;;5031382;28;20235;-77
2022/07/23 06:26:42;;;;;;;15.80;14.60;;;25.50;99.90;;;;;;5016093;28;20179;-76
2022/07/23 06:29:08;;;;;;;16.92;15.82;;;25.60;99.90;;;;;;5014335;28;20687;-77
2022/07/23 06:31:34;;;;;;;31.58;29.77;;;25.80;99.90;;;;;;5016545;28;20600;-76
2022/07/23 06:34:00;;;;;;;30.10;28.33;;;25.80;99.90;;;;;;5018584;28;20559;-76
2022/07/23 06:36:26;;;;;;;99.65;94.70;;;26.00;99.90;;;;;;5032621;28;20179;-77
2022/07/23 06:38:52;;;;;;;73.75;69.97;;;26.30;99.90;;;;;;5030145;28;20217;-77
2022/07/23 06:41:18;;;;;;;14.80;13.68;;;26.40;99.90;;;;;;5022660;28;20207;-76
2022/07/23 06:43:44;;;;;;;17.73;16.73;;;26.60;99.90;;;;;;5011014;28;20231;-77
2022/07/23 06:46:10;;;;;;;10.82;10.02;;;26.70;99.90;;;;;;5011037;28;20180;-77
2022/07/23 06:48:35;;;;;;;19.75;18.60;;;27.00;99.90;;;;;;5011246;28;20682;-76
2022/07/23 06:51:02;;;;;;;32.65;30.60;;;27.10;99.90;;;;;;5011062;28;20407;-77
2022/07/23 06:53:28;;;;;;;59.85;56.65;;;27.30;99.90;;;;;;5025622;28;20221;-77
2022/07/23 06:55:54;;;;;;;53.58;50.75;;;27.30;99.90;;;;;;5031257;28;20253;-77
2022/07/23 06:58:20;;;;;;;55.95;52.78;;;27.10;99.90;;;;;;5030843;28;20183;-77
2022/07/23 07:00:46;;;;;;;58.47;55.38;;;26.90;99.90;;;;;;5016854;28;20649;-77
2022/07/23 07:03:12;;;;;;;54.33;51.50;;;26.50;99.90;;;;;;5011818;28;20314;-77
2022/07/23 07:05:39;;;;;;;47.00;44.40;;;26.30;99.90;;;;;;5012841;28;20183;-78
2022/07/23 07:08:05;;;;;;;30.65;28.85;;;26.20;99.90;;;;;;5011366;28;20183;-78
2022/07/23 07:10:31;;;;;;;14.50;13.63;;;26.30;99.90;;;;;;5017484;28;20229;-79
2022/07/23 07:12:57;;;;;;;22.23;20.83;;;26.40;99.90;;;;;;5020861;28;20198;-78
2022/07/23 07:15:23;;;;;;;25.10;23.45;;;26.60;99.90;;;;;;5030118;28;20663;-78
2022/07/23 07:17:49;;;;;;;24.55;23.27;;;26.50;99.90;;;;;;5030118;28;20705;-78
2022/07/23 07:20:15;;;;;;;21.50;19.98;;;26.40;99.90;;;;;;5023716;28;20262;-78
2022/07/23 07:22:41;;;;;;;14.05;13.02;;;26.20;99.90;;;;;;5011731;28;20669;-77
2022/07/23 07:25:07;;;;;;;12.00;11.20;;;26.10;99.90;;;;;;5016823;28;20218;-80
2022/07/23 07:27:33;;;;;;;10.57;9.77;;;26.00;99.90;;;;;;5013067;28;20194;-77
2022/07/23 07:29:59;;;;;;;8.60;8.10;;;25.70;99.90;;;;;;5018959;28;20171;-77
2022/07/23 07:32:25;;;;;;;11.13;8.75;;;25.50;99.90;;;;;;5032405;28;20214;-77
2022/07/23 07:34:51;;;;;;;42.65;39.08;;;25.20;99.90;;;;;;5032198;28;20203;-78
2022/07/23 07:37:17;;;;;;;68.93;64.57;;;25.00;99.90;;;;;;5031263;28;20189;-79
2022/07/23 07:39:42;;;;;;;31.92;29.50;;;24.90;99.90;;;;;;5031890;28;20206;-78
2022/07/23 07:42:08;;;;;;;20.85;19.35;;;24.90;99.90;;;;;;5034865;28;20211;-78
2022/07/23 07:44:34;;;;;;;22.98;21.40;;;25.00;99.90;;;;;;5037107;28;20631;-78
2022/07/23 07:47:00;;;;;;;33.70;31.20;;;25.10;99.90;;;;;;5031863;28;20187;-79
2022/07/23 07:49:25;;;;;;;42.28;39.58;;;25.20;99.90;;;;;;5033303;28;20673;-78
2022/07/23 07:51:51;;;;;;;39.42;36.88;;;25.20;99.90;;;;;;5016134;28;20207;-79
2022/07/23 07:54:17;;;;;;;61.55;57.45;;;25.20;99.90;;;;;;5017346;28;20188;-78
2022/07/23 07:56:43;;;;;;;54.72;51.72;;;25.30;99.90;;;;;;5015845;28;20210;-79
2022/07/23 07:59:08;;;;;;;52.28;48.83;;;25.30;99.90;;;;;;5015883;28;20194;-79
2022/07/23 08:01:34;;;;;;;34.10;32.00;;;25.20;99.90;;;;;;5032121;28;20538;-79
2022/07/23 08:04:00;;;;;;;25.10;23.55;;;25.10;99.90;;;;;;5036920;28;20171;-79
2022/07/23 08:06:26;;;;;;;22.35;20.65;;;25.10;99.90;;;;;;5031592;28;20183;-79
2022/07/23 08:08:52;;;;;;;23.17;21.67;;;25.20;99.90;;;;;;5028058;28;20190;-78
2022/07/23 08:11:17;;;;;;;19.48;17.88;;;25.30;99.90;;;;;;5035703;28;20258;-79
2022/07/23 08:13:44;;;;;;;18.25;16.95;;;25.30;99.90;;;;;;5035509;28;20197;-78
2022/07/23 08:16:11;;;;;;;16.67;15.38;;;25.50;99.90;;;;;;5036158;28;20214;-79
2022/07/23 08:18:36;;;;;;;24.40;22.60;;;25.70;99.90;;;;;;5032130;28;20187;-76
2022/07/23 08:21:05;;;;;;;61.90;58.30;;;26.40;99.90;;;;;;5026259;28;20187;-79
2022/07/23 08:23:31;;;;;;;17.77;16.52;;;27.10;99.90;;;;;;5019325;28;20196;-79
2022/07/23 08:25:59;;;;;;;52.03;48.90;;;27.80;99.90;;;;;;5018368;28;20186;-75
2022/07/23 08:28:25;;;;;;;30.40;28.40;;;28.20;99.90;;;;;;5027532;28;20249;-75
2022/07/23 08:30:51;;;;;;;25.42;23.02;;;28.60;99.90;;;;;;5032452;28;20185;-74
2022/07/23 08:33:18;;;;;;;24.77;22.60;;;28.20;99.90;;;;;;5033425;28;20286;-73
2022/07/23 08:35:47;;;;;;;25.77;23.48;;;28.00;99.90;;;;;;5033852;28;20256;-73
2022/07/23 08:38:15;;;;;;;19.17;17.75;;;28.50;99.90;;;;;;5029851;28;20172;-72
2022/07/23 08:40:44;;;;;;;60.22;56.90;;;29.30;99.90;;;;;;5025889;28;20270;-73
2022/07/23 08:43:12;;;;;;;67.10;63.67;;;30.00;98.80;;;;;;5032872;28;20199;-73
2022/07/23 08:45:43;;;;;;;47.10;44.38;;;30.40;97.90;;;;;;5032069;28;20183;-73
2022/07/23 08:48:29;;;;;;;18.75;17.55;;;30.70;97.00;;;;;;5029645;28;20572;-72
2022/07/23 08:50:58;;;;;;;15.98;14.85;;;30.10;96.10;;;;;;5013730;28;20230;-76
2022/07/23 08:53:26;;;;;;;44.92;42.10;;;28.90;97.70;;;;;;5013494;28;20715;-76
2022/07/23 08:55:58;;;;;;;98.57;93.05;;;28.10;99.20;;;;;;5012253;28;20269;-76
2022/07/23 08:58:24;;;;;;;46.55;44.05;;;27.70;99.80;;;;;;5022191;28;20176;-75
2022/07/23 09:00:51;;;;;;;25.65;24.05;;;27.40;99.90;;;;;;5012950;28;20171;-76
2022/07/23 09:03:22;;;;;;;52.63;49.72;;;27.10;99.90;;;;;;5012383;28;20202;-75
2022/07/23 09:05:53;;;;;;;65.03;61.60;;;26.60;99.90;;;;;;5012865;28;20718;-76
2022/07/23 09:08:24;;;;;;;22.02;20.65;;;26.20;99.90;;;;;;5027921;28;20256;-75
2022/07/23 09:10:52;;;;;;;36.53;34.38;;;26.00;99.90;;;;;;5016690;28;20314;-76
2022/07/23 09:13:29;;;;;;;21.33;19.80;;;26.00;99.90;;;;;;5013369;28;20253;-76
2022/07/23 09:16:19;;;;;;;35.22;33.28;;;26.50;99.90;;;;;;5012303;28;20376;-75
2022/07/23 09:18:46;;;;;;;22.13;20.83;;;27.50;99.90;;;;;;5026169;28;20652;-75
2022/07/23 09:21:29;;;;;;;19.30;18.20;;;28.80;99.90;;;;;;5031709;28;20182;-75
2022/07/23 09:24:00;;;;;;;36.15;34.03;;;30.00;98.30;;;;;;5032640;28;20608;-74
2022/07/23 09:26:35;;;;;;;101.30;96.30;;;31.10;95.70;;;;;;5030337;28;20183;-74
2022/07/23 09:29:03;;;;;;;27.25;25.60;;;31.30;95.40;;;;;;5031531;28;20183;-75
2022/07/23 09:31:44;;;;;;;9.65;8.95;;;31.20;94.40;;;;;;5032850;28;20175;-75
2022/07/23 09:34:18;;;;;;;9.25;8.55;;;31.80;92.90;;;;;;5032715;28;20678;-75
2022/07/23 09:36:44;;;;;;;9.23;8.65;;;32.00;92.30;;;;;;5013094;28;20229;-75
2022/07/23 09:39:11;;;;;;;11.45;10.57;;;31.90;91.60;;;;;;5012280;28;20203;-75
2022/07/23 09:41:46;;;;;;;12.70;11.90;;;31.70;91.30;;;;;;5012424;28;20713;-75
2022/07/23 09:44:16;;;;;;;7.38;6.82;;;32.00;91.10;;;;;;5012813;28;20206;-75
2022/07/23 09:46:43;;;;;;;9.88;7.68;;;32.20;88.10;;;;;;5028748;28;20171;-76
2022/07/23 09:49:18;;;;;;;10.02;9.25;;;32.20;88.90;;;;;;5031273;28;20180;-75
2022/07/23 09:51:49;;;;;;;10.00;9.10;;;31.60;90.00;;;;;;5032514;28;20545;-75
2022/07/23 09:54:31;;;;;;;9.88;9.27;;;31.60;90.30;;;;;;5041621;23;20603;-81
2022/07/23 09:56:59;;;;;;;13.40;12.48;;;31.30;90.30;;;;;;5017183;28;20207;-79
2022/07/23 09:59:28;;;;;;;8.65;8.05;;;31.20;90.50;;;;;;5022254;28;20180;-80
2022/07/23 10:01:58;;;;;;;8.98;8.07;;;31.50;87.50;;;;;;5040311;28;20194;-80
2022/07/23 10:04:24;;;;;;;7.50;6.90;;;31.70;86.90;;;;;;5028617;28;20228;-79
2022/07/23 10:06:55;;;;;;;7.88;7.05;;;32.00;85.10;;;;;;4997553;28;20714;-82
2022/07/23 10:09:24;;;;;;;7.47;6.88;;;31.90;83.80;;;;;;4996446;28;20188;-82
2022/07/23 10:11:54;;;;;;;9.35;8.65;;;32.10;86.00;;;;;;4994474;28;20248;-82
2022/07/23 10:14:21;;;;;;;10.93;10.13;;;32.50;83.10;;;;;;4994830;28;20204;-81
2022/07/23 10:16:48;;;;;;;15.45;14.57;;;32.40;83.00;;;;;;4992313;28;20184;-79
2022/07/23 10:19:14;;;;;;;17.58;16.58;;;32.70;81.90;;;;;;4993258;28;20180;-79
2022/07/23 10:21:46;;;;;;;16.65;15.73;;;33.00;79.40;;;;;;4993800;28;20315;-79
2022/07/23 10:24:45;;;;;;;12.00;11.23;;;33.00;77.80;;;;;;4994015;28;20250;-79
2022/07/23 10:27:59;;;;;;;19.27;17.88;;;33.60;79.40;;;;;;4990091;28;20180;-79
2022/07/23 10:30:45;;;;;;;12.38;11.27;;;34.40;77.70;;;;;;4940990;28;20252;-79
2022/07/23 10:33:54;;;;;;;7.70;7.10;;;34.40;77.80;;;;;;4975224;28;20227;-78
2022/07/23 10:36:20;;;;;;;7.13;6.53;;;34.80;77.10;;;;;;4995394;28;20753;-79
2022/07/23 10:38:55;;;;;;;21.85;20.55;;;35.00;75.50;;;;;;5017024;28;20180;-78
2022/07/23 10:41:33;;;;;;;25.17;23.77;;;35.20;71.40;;;;;;5015529;28;20537;-81
2022/07/23 10:44:11;;;;;;;21.70;20.48;;;35.20;72.70;;;;;;4994120;28;20204;-80
2022/07/23 10:49:40;;;;;;;11.18;10.48;;;34.40;72.70;;;;;;4985065;28;20199;-80
2022/07/23 10:52:23;;;;;;;14.23;13.25;;;34.00;73.60;;;;;;4992010;28;20645;-79
2022/07/23 10:55:09;;;;;;;32.85;31.15;;;34.20;73.30;;;;;;5010436;28;20208;-80
2022/07/23 10:57:48;;;;;;;53.72;50.95;;;34.80;72.10;;;;;;5008774;28;20274;-81
2022/07/23 11:00:17;;;;;;;79.75;75.85;;;34.80;70.50;;;;;;4976639;28;20239;-82
2022/07/23 11:02:46;;;;;;;37.75;35.78;;;34.70;69.50;;;;;;4977067;28;20220;-79
2022/07/23 11:05:15;;;;;;;108.22;103.05;;;34.90;71.40;;;;;;4997261;28;20184;-80
2022/07/23 11:08:11;;;;;;;139.70;132.90;;;35.00;70.20;;;;;;4998259;28;20180;-82
2022/07/23 11:10:43;;;;;;;187.57;178.50;;;35.30;70.50;;;;;;5012885;28;20195;-81
2022/07/23 11:13:37;;;;;;;170.02;161.60;;;34.60;67.90;;;;;;4997975;28;20200;-81
2022/07/23 11:18:43;;;;;;;33.20;31.38;;;33.80;68.40;;;;;;4994426;28;20203;-79
2022/07/23 11:21:23;;;;;;;90.60;85.93;;;33.50;69.40;;;;;;4995000;28;20271;-81
2022/07/23 11:24:06;;;;;;;56.63;53.80;;;33.40;68.00;;;;;;5001687;28;20334;-79
2022/07/23 11:26:41;;;;;;;20.98;19.90;;;33.10;68.60;;;;;;4998878;28;20181;-79
2022/07/23 11:29:25;;;;;;;59.83;56.88;;;32.80;69.20;;;;;;5014574;28;20274;-79
2022/07/23 11:32:02;;;;;;;107.95;102.53;;;33.30;66.20;;;;;;5000680;28;20587;-77
2022/07/23 11:34:35;;;;;;;66.93;63.58;;;33.80;65.20;;;;;;5002374;28;20849;-77
2022/07/23 11:37:04;;;;;;;179.27;170.60;;;33.80;65.20;;;;;;4999225;28;20180;-79
2022/07/23 11:39:31;;;;;;;251.82;239.52;;;33.70;64.40;;;;;;4999457;28;20172;-78
2022/07/23 11:41:58;;;;;;;170.75;162.55;;;33.50;63.90;;;;;;4997712;28;20275;-80
2022/07/23 11:44:25;;;;;;;77.63;73.63;;;33.10;66.00;;;;;;4996012;28;20715;-76
2022/07/23 11:47:03;;;;;;;44.47;42.20;;;32.50;66.30;;;;;;4997001;28;20668;-79
2022/07/23 11:49:29;;;;;;;19.45;18.30;;;32.00;67.50;;;;;;4998463;28;20180;-80
2022/07/23 11:52:12;;;;;;;8.55;8.05;;;31.80;67.40;;;;;;4998115;28;20227;-78
2022/07/23 11:54:49;;;;;;;11.00;10.30;;;32.00;68.40;;;;;;5001838;28;20222;-77
2022/07/23 11:57:15;;;;;;;11.00;10.40;;;32.50;67.70;;;;;;5016913;28;20667;-75
2022/07/23 11:59:42;;;;;;;24.40;23.10;;;33.00;66.80;;;;;;5010495;28;20176;-76
2022/07/23 12:02:08;;;;;;;85.65;81.50;;;33.60;65.60;;;;;;5008483;28;20180;-79
2022/07/23 12:04:42;;;;;;;194.00;184.48;;;34.60;64.20;;;;;;5000779;28;20689;-80
2022/07/23 12:07:26;;;;;;;362.80;343.98;;;35.30;63.20;;;;;;4999530;28;20214;-78
2022/07/23 12:09:52;;;;;;;445.63;421.15;;;36.10;60.80;;;;;;4995976;28;20191;-75
2022/07/23 12:12:18;;;;;;;455.80;430.52;;;36.10;60.70;;;;;;4996932;28;20195;-77
2022/07/23 12:14:52;;;;;;;432.52;408.38;;;34.90;61.70;;;;;;4995854;28;20216;-76
2022/07/23 12:17:17;;;;;;;419.23;396.50;;;34.70;62.60;;;;;;4996772;28;20195;-79
2022/07/23 12:19:44;;;;;;;395.83;374.80;;;34.60;61.90;;;;;;4997289;28;20172;-79
2022/07/23 12:22:10;;;;;;;397.20;375.85;;;34.80;62.50;;;;;;5000283;28;20185;-76
2022/07/23 12:25:00;;;;;;;447.42;422.85;;;34.40;61.80;;;;;;5009116;28;20235;-76
2022/07/23 12:27:27;;;;;;;357.00;338.40;;;33.70;61.50;;;;;;4980596;28;20188;-77
2022/07/23 12:29:53;;;;;;;397.00;375.67;;;33.70;63.10;;;;;;4975528;28;20281;-76
2022/07/23 12:32:22;;;;;;;372.10;352.15;;;34.10;61.30;;;;;;4975652;28;20272;-76
2022/07/23 12:35:08;;;;;;;407.45;385.58;;;34.30;60.70;;;;;;4973679;28;20228;-77
2022/07/23 12:37:36;;;;;;;456.13;430.75;;;35.00;59.80;;;;;;4975575;28;20181;-77
2022/07/23 12:40:29;;;;;;;454.67;429.20;;;35.10;59.40;;;;;;4975108;28;20646;-76
2022/07/23 12:43:01;;;;;;;488.42;460.58;;;35.00;59.80;;;;;;4990580;28;20204;-78